Time;durP1;ratioP1;P1;durP2;ratioP2;P2;SDS_P1;SDS_P2;PMS_P1;PMS_P2;Temp;Humidity;BMP_temperature;BMP_pressure;BME280_temperature;BME280_humidity;BME280_pressure;Samples;Min_cycle;Max_cycle;Signal;HPM_P1;HPM_P2
2024/01/11 00:02:48;;;;;;;46.07;25.47;;;;;;;-0.55;54.66;99774.19;6741372;29;20236;-81
2024/01/11 00:06:12;;;;;;;49.23;25.90;;;;;;;-0.10;54.05;99747.75;6744311;29;20276;-81
2024/01/11 00:09:33;;;;;;;51.57;26.87;;;;;;;-0.08;55.22;99773.34;6743980;29;20577;-81
2024/01/11 00:12:55;;;;;;;46.13;25.60;;;;;;;0.22;54.03;99780.66;6744606;29;20258;-80
2024/01/11 00:16:16;;;;;;;41.37;23.27;;;;;;;0.25;53.60;99777.75;6743470;29;20212;-79
2024/01/11 00:19:38;;;;;;;43.57;24.03;;;;;;;-0.18;54.38;99783.75;6735675;29;20348;-78
2024/01/11 00:23:01;;;;;;;45.13;24.77;;;;;;;0.05;53.43;99788.16;6733200;29;20248;-78
2024/01/11 00:26:22;;;;;;;48.20;25.23;;;;;;;-0.05;53.79;99789.84;6740523;29;20228;-79
2024/01/11 00:29:44;;;;;;;48.13;26.87;;;;;;;0.13;54.13;99785.81;6733160;29;20209;-79
2024/01/11 00:33:06;;;;;;;42.93;23.23;;;;;;;0.28;53.37;99768.72;6734432;29;20393;-79
2024/01/11 00:36:28;;;;;;;39.37;22.07;;;;;;;-0.19;53.38;99781.22;6728552;29;20717;-78
2024/01/11 00:39:52;;;;;;;42.97;25.57;;;;;;;0.05;53.12;99777.56;6732675;29;20790;-79
2024/01/11 00:43:14;;;;;;;45.23;25.27;;;;;;;-0.02;53.08;99736.59;6732043;29;20223;-79
2024/01/11 00:46:36;;;;;;;40.70;22.83;;;;;;;-0.48;52.83;99758.69;6731758;29;20271;-79
2024/01/11 00:49:58;;;;;;;45.93;26.60;;;;;;;-0.10;53.06;99753.06;6733510;29;20208;-80
2024/01/11 00:53:19;;;;;;;40.20;22.73;;;;;;;-0.22;53.16;99786.75;6758950;29;20306;-80
2024/01/11 00:56:42;;;;;;;48.53;25.20;;;;;;;-0.09;53.84;99772.47;6740309;29;20266;-79
2024/01/11 01:00:05;;;;;;;44.47;25.47;;;;;;;-0.23;54.22;99782.41;6731777;29;20216;-80
2024/01/11 01:03:26;;;;;;;44.03;26.10;;;;;;;-0.13;53.78;99780.78;6726181;29;20356;-79
2024/01/11 01:06:48;;;;;;;42.90;24.20;;;;;;;-0.30;54.94;99789.13;6731871;29;20236;-79
2024/01/11 01:10:09;;;;;;;55.60;26.77;;;;;;;-0.22;55.27;99791.09;6732374;29;20216;-79
2024/01/11 01:13:32;;;;;;;47.17;24.27;;;;;;;0.09;54.65;99781.69;6732292;29;20232;-79
2024/01/11 01:16:54;;;;;;;42.87;24.13;;;;;;;0.06;53.06;99798.66;6735377;29;20318;-79
2024/01/11 01:20:15;;;;;;;47.57;26.87;;;;;;;-0.92;54.90;99793.69;6734346;29;20280;-80
2024/01/11 01:23:37;;;;;;;53.97;26.90;;;;;;;-0.56;55.36;99796.34;6731734;29;20302;-80
2024/01/11 01:27:00;;;;;;;46.73;26.03;;;;;;;-0.12;55.26;99778.84;6731706;29;20228;-79
2024/01/11 01:30:23;;;;;;;46.27;24.97;;;;;;;-0.18;53.87;99781.09;6737109;29;20281;-80
2024/01/11 01:33:44;;;;;;;43.03;24.43;;;;;;;-0.27;54.20;99798.53;6742955;29;20239;-79
2024/01/11 01:37:06;;;;;;;53.80;23.70;;;;;;;-0.02;53.85;99789.59;6724305;29;20261;-80
2024/01/11 01:40:28;;;;;;;44.27;24.47;;;;;;;0.18;53.59;99797.75;6717948;29;20216;-80
2024/01/11 01:43:49;;;;;;;41.80;24.03;;;;;;;-0.07;52.86;99819.09;6732734;29;20261;-80
2024/01/11 01:47:12;;;;;;;53.00;26.97;;;;;;;-0.33;53.14;99807.88;6730654;29;20685;-80
2024/01/11 01:50:34;;;;;;;46.27;25.97;;;;;;;-0.52;53.62;99823.44;6732967;29;20204;-80
2024/01/11 01:53:57;;;;;;;43.90;24.43;;;;;;;-0.60;53.56;99783.44;6706988;29;20321;-80
2024/01/11 01:57:19;;;;;;;45.33;24.17;;;;;;;-0.81;54.42;99830.84;6722153;29;20323;-81
2024/01/11 02:00:42;;;;;;;44.23;23.20;;;;;;;-0.71;54.52;99829.22;6739745;29;20219;-80
2024/01/11 02:04:04;;;;;;;42.43;24.93;;;;;;;-0.30;53.74;99811.16;6731376;29;20215;-80
2024/01/11 02:07:26;;;;;;;45.33;25.93;;;;;;;-0.42;53.55;99809.41;6732423;29;20263;-81
2024/01/11 02:10:48;;;;;;;44.53;24.13;;;;;;;-0.30;53.70;99812.97;6733383;29;20352;-79
2024/01/11 02:14:11;;;;;;;45.83;24.83;;;;;;;-0.29;53.13;99812.88;6732518;29;20257;-81
2024/01/11 02:17:33;;;;;;;43.13;24.07;;;;;;;-0.20;52.43;99806.03;6732063;29;20695;-81
2024/01/11 02:20:56;;;;;;;43.63;24.43;;;;;;;-0.59;53.32;99812.44;6739013;29;20224;-81
2024/01/11 02:24:19;;;;;;;52.67;24.53;;;;;;;-0.69;53.67;99822.03;6731963;29;20240;-82
2024/01/11 02:27:47;;;;;;;50.97;25.10;;;;;;;-0.82;54.40;99828.28;6731168;29;20220;-81
2024/01/11 02:31:09;;;;;;;44.57;24.47;;;;;;;-1.14;54.38;99811.22;6734651;29;20207;-81
2024/01/11 02:34:31;;;;;;;41.93;23.97;;;;;;;-0.96;55.19;99842.50;6736221;29;20754;-81
2024/01/11 02:37:52;;;;;;;46.43;24.53;;;;;;;-0.56;53.58;99837.84;6734195;29;20235;-80
2024/01/11 02:41:17;;;;;;;47.67;24.43;;;;;;;-0.40;53.70;99830.50;6730956;29;20306;-80
2024/01/11 02:44:38;;;;;;;47.33;24.30;;;;;;;-0.40;52.84;99838.44;6731042;29;20247;-80
2024/01/11 02:48:00;;;;;;;46.60;22.80;;;;;;;-0.34;53.38;99828.25;6754985;29;20247;-81
2024/01/11 02:51:21;;;;;;;42.57;23.10;;;;;;;-0.33;53.13;99821.13;6757698;29;20215;-81
2024/01/11 02:54:43;;;;;;;48.97;25.07;;;;;;;-0.37;53.01;99825.00;6726257;29;20281;-79
2024/01/11 02:58:07;;;;;;;43.17;22.83;;;;;;;-1.15;53.17;99806.84;6705887;29;20229;-81
2024/01/11 03:01:29;;;;;;;42.80;24.23;;;;;;;-0.58;52.83;99811.50;6727016;29;20300;-80
2024/01/11 03:04:50;;;;;;;45.23;24.23;;;;;;;-0.95;53.04;99825.66;6730533;29;20247;-81
2024/01/11 03:08:12;;;;;;;42.43;24.30;;;;;;;-1.04;54.26;99802.50;6731135;29;20362;-81
2024/01/11 03:11:33;;;;;;;40.00;22.60;;;;;;;-0.61;53.67;99797.66;6730469;29;20220;-80
2024/01/11 03:14:56;;;;;;;42.57;23.90;;;;;;;-0.83;54.38;99818.66;6731157;29;20368;-80
2024/01/11 03:18:18;;;;;;;45.93;23.77;;;;;;;-0.57;53.94;99797.31;6731080;29;20650;-80
2024/01/11 03:21:43;;;;;;;46.27;24.13;;;;;;;-0.77;53.09;99797.06;6729713;29;20212;-79
2024/01/11 03:25:05;;;;;;;44.80;24.37;;;;;;;-1.13;54.10;99802.31;6730082;29;20263;-81
2024/01/11 03:28:27;;;;;;;43.73;24.00;;;;;;;-0.98;54.12;99802.06;6730725;29;20227;-81
2024/01/11 03:31:50;;;;;;;48.40;24.53;;;;;;;-1.05;54.87;99813.19;6731220;29;20321;-81
2024/01/11 03:35:11;;;;;;;45.10;25.20;;;;;;;-0.89;54.04;99803.22;6731751;29;20327;-81
2024/01/11 03:38:33;;;;;;;42.23;24.43;;;;;;;-0.63;53.07;99779.22;6733527;29;20279;-81
2024/01/11 03:41:54;;;;;;;38.40;22.57;;;;;;;-0.64;52.78;99774.03;6736314;29;20300;-79
2024/01/11 03:45:19;;;;;;;44.90;23.97;;;;;;;-0.30;51.63;99787.31;6737810;29;20506;-80
2024/01/11 03:48:42;;;;;;;42.93;23.67;;;;;;;-0.77;52.44;99792.56;6730461;29;20231;-81
2024/01/11 03:52:03;;;;;;;47.43;24.97;;;;;;;-1.03;52.91;99798.03;6752729;29;20252;-79
2024/01/11 03:55:25;;;;;;;42.67;22.97;;;;;;;-1.06;53.52;99787.69;6734624;29;20270;-81
2024/01/11 03:58:48;;;;;;;41.10;23.00;;;;;;;-0.90;53.25;99777.72;6731344;29;20235;-81
2024/01/11 04:02:10;;;;;;;42.30;22.97;;;;;;;-0.63;52.84;99788.94;6728754;29;20307;-81
2024/01/11 04:05:33;;;;;;;44.13;24.70;;;;;;;-0.78;52.73;99792.72;6740196;29;20296;-81
2024/01/11 04:08:54;;;;;;;49.50;23.77;;;;;;;-0.53;52.68;99795.28;6734768;29;20505;-81
2024/01/11 04:12:16;;;;;;;46.93;25.10;;;;;;;-0.57;52.25;99792.00;6734600;29;20204;-80
2024/01/11 04:15:38;;;;;;;42.00;23.80;;;;;;;-0.49;52.43;99778.22;6733549;29;20641;-80
2024/01/11 04:19:00;;;;;;;41.60;22.70;;;;;;;-0.55;52.43;99787.44;6733928;29;20287;-81
2024/01/11 04:22:23;;;;;;;40.17;23.17;;;;;;;-0.55;52.04;99792.72;6734427;29;20260;-79
2024/01/11 04:25:44;;;;;;;39.60;22.47;;;;;;;-0.94;52.12;99792.13;6738320;29;20303;-80
2024/01/11 04:29:06;;;;;;;39.20;23.30;;;;;;;-1.07;53.34;99804.53;6742440;29;20258;-79
2024/01/11 04:32:27;;;;;;;43.27;24.43;;;;;;;-0.59;53.02;99798.38;6734792;29;20216;-79
2024/01/11 04:35:49;;;;;;;45.87;24.23;;;;;;;-0.61;52.71;99784.41;6736601;29;20266;-79
2024/01/11 04:39:12;;;;;;;43.57;22.57;;;;;;;-0.97;52.28;99793.19;6760346;29;20732;-79
2024/01/11 04:42:33;;;;;;;45.07;25.03;;;;;;;-1.23;52.64;99785.38;6753346;29;20677;-79
2024/01/11 04:45:55;;;;;;;43.47;24.63;;;;;;;-1.34;54.00;99778.22;6739618;29;20315;-80
2024/01/11 04:49:17;;;;;;;50.67;25.40;;;;;;;-1.23;53.34;99790.69;6731933;29;20232;-77
2024/01/11 04:52:39;;;;;;;40.90;23.60;;;;;;;-0.82;53.03;99792.09;6730480;29;20255;-79
2024/01/11 04:56:02;;;;;;;47.67;23.63;;;;;;;-0.96;52.01;99794.03;6730587;29;20255;-78
2024/01/11 04:59:24;;;;;;;43.53;21.60;;;;;;;-1.23;53.26;99786.25;6739571;29;20720;-78
2024/01/11 05:02:45;;;;;;;45.70;24.00;;;;;;;-1.22;53.44;99785.28;6738625;29;20219;-79
2024/01/11 05:06:07;;;;;;;39.07;22.90;;;;;;;-1.04;52.93;99783.13;6731507;29;20303;-80
2024/01/11 05:09:28;;;;;;;49.07;25.03;;;;;;;-0.95;52.64;99787.78;6732237;29;20208;-79
2024/01/11 05:12:51;;;;;;;39.07;21.60;;;;;;;-1.46;52.85;99800.22;6732825;29;20240;-78
2024/01/11 05:16:19;;;;;;;43.33;24.87;;;;;;;-1.69;54.67;99800.97;6731995;29;20307;-79
2024/01/11 05:19:40;;;;;;;43.67;23.23;;;;;;;-1.35;53.91;99815.34;6739009;29;20232;-79
2024/01/11 05:23:02;;;;;;;47.60;23.53;;;;;;;-1.15;53.88;99806.84;6734259;29;20304;-80
2024/01/11 05:26:24;;;;;;;44.63;23.57;;;;;;;-1.29;53.39;99805.19;6730885;29;20418;-80
2024/01/11 05:29:47;;;;;;;41.10;24.13;;;;;;;-1.11;53.22;99814.50;6731859;29;20657;-80
2024/01/11 05:33:08;;;;;;;46.53;24.00;;;;;;;-1.24;52.83;99800.41;6731778;29;20271;-80
2024/01/11 05:36:30;;;;;;;48.03;27.50;;;;;;;-1.14;52.69;99822.63;6731053;29;20238;-80
2024/01/11 05:39:51;;;;;;;45.77;27.00;;;;;;;-1.45;53.63;99846.88;6731770;29;20368;-79
2024/01/11 05:43:13;;;;;;;44.17;24.67;;;;;;;-1.51;53.73;99828.78;6730725;29;20682;-79
2024/01/11 05:46:36;;;;;;;46.73;23.50;;;;;;;-1.21;53.46;99807.28;6730841;29;20268;-79
2024/01/11 05:49:58;;;;;;;44.07;24.10;;;;;;;-0.99;52.10;99823.34;6731007;29;20290;-79
2024/01/11 05:53:20;;;;;;;47.47;25.37;;;;;;;-1.41;52.05;99840.44;6730893;29;20327;-78
2024/01/11 05:56:42;;;;;;;50.70;25.70;;;;;;;-1.85;53.65;99855.78;6730070;29;20238;-79
2024/01/11 06:00:05;;;;;;;44.77;26.27;;;;;;;-1.45;53.33;99852.16;6728816;29;20207;-80
2024/01/11 06:03:28;;;;;;;52.60;25.33;;;;;;;-1.79;53.18;99857.16;6730591;29;20333;-80
2024/01/11 06:06:49;;;;;;;50.53;25.47;;;;;;;-1.89;55.01;99866.69;6729470;29;20725;-79
2024/01/11 06:10:11;;;;;;;42.00;23.80;;;;;;;-1.53;54.26;99864.22;6730825;29;20280;-79
2024/01/11 06:13:32;;;;;;;47.13;24.10;;;;;;;-1.27;53.43;99839.44;6721008;29;20232;-80
2024/01/11 06:16:53;;;;;;;47.37;23.63;;;;;;;-1.15;52.15;99849.19;6704802;29;20273;-79
2024/01/11 06:20:17;;;;;;;40.73;23.67;;;;;;;-1.77;52.31;99861.41;6718242;29;20350;-80
2024/01/11 06:23:38;;;;;;;43.83;23.33;;;;;;;-1.90;54.04;99851.78;6730888;29;20255;-79
2024/01/11 06:27:00;;;;;;;40.00;23.97;;;;;;;-1.66;54.19;99856.25;6729384;29;20290;-79
2024/01/11 06:30:21;;;;;;;45.03;24.80;;;;;;;-1.43;53.17;99866.13;6729586;29;20376;-80
2024/01/11 06:33:43;;;;;;;48.57;25.20;;;;;;;-1.43;52.95;99844.13;6726819;29;20753;-79
2024/01/11 06:37:06;;;;;;;45.83;24.83;;;;;;;-1.13;52.15;99850.78;6730108;29;20271;-78
2024/01/11 06:40:27;;;;;;;46.57;26.07;;;;;;;-1.86;52.29;99863.81;6730353;29;20215;-79
2024/01/11 06:43:49;;;;;;;45.87;24.17;;;;;;;-1.40;52.31;99844.75;6730732;29;20345;-80
2024/01/11 06:47:10;;;;;;;43.30;23.70;;;;;;;-1.99;53.73;99862.94;6743506;29;20239;-80
2024/01/11 06:50:32;;;;;;;45.33;24.33;;;;;;;-1.70;53.97;99867.13;6746740;29;20216;-79
2024/01/11 06:53:54;;;;;;;51.80;23.93;;;;;;;-1.67;53.76;99869.59;6730095;29;20315;-79
2024/01/11 06:57:17;;;;;;;46.00;26.00;;;;;;;-1.36;52.92;99859.44;6729691;29;20319;-79
2024/01/11 07:00:42;;;;;;;39.40;23.17;;;;;;;-1.15;52.38;99862.41;6729687;29;20216;-79
2024/01/11 07:04:04;;;;;;;46.23;23.70;;;;;;;-1.57;51.30;99839.78;6730825;29;20211;-80
2024/01/11 07:07:26;;;;;;;45.60;24.27;;;;;;;-1.90;53.12;99889.59;6730309;29;20380;-79
2024/01/11 07:10:49;;;;;;;56.17;25.20;;;;;;;-1.96;54.13;99902.38;6730543;29;20261;-80
2024/01/11 07:14:11;;;;;;;46.80;24.97;;;;;;;-1.64;53.59;99901.97;6729898;29;20238;-80
2024/01/11 07:17:33;;;;;;;47.80;24.20;;;;;;;-1.38;52.22;99887.81;6728979;29;20237;-78
2024/01/11 07:20:57;;;;;;;42.13;23.07;;;;;;;-1.81;52.67;99899.59;6729050;29;20224;-80
2024/01/11 07:24:19;;;;;;;49.83;25.00;;;;;;;-2.58;53.79;99893.22;6728824;29;20193;-79
2024/01/11 07:27:42;;;;;;;50.33;25.00;;;;;;;-2.11;55.79;99895.44;6728491;29;20728;-80
2024/01/11 07:31:04;;;;;;;52.77;25.93;;;;;;;-2.00;55.18;99888.53;6733789;29;20313;-79
2024/01/11 07:34:26;;;;;;;51.93;25.80;;;;;;;-1.53;54.14;99910.03;6741569;29;20267;-79
2024/01/11 07:37:49;;;;;;;50.47;25.93;;;;;;;-1.47;53.53;99917.53;6732374;29;20366;-81
2024/01/11 07:41:11;;;;;;;44.50;23.00;;;;;;;-1.13;51.99;99916.09;6732086;29;20211;-80
2024/01/11 07:44:34;;;;;;;49.37;25.30;;;;;;;-2.29;53.13;99904.56;6731408;29;20284;-79
2024/01/11 07:47:56;;;;;;;49.83;24.70;;;;;;;-1.88;54.33;99919.44;6727962;29;20716;-80
2024/01/11 07:51:18;;;;;;;50.00;26.03;;;;;;;-1.66;53.37;99926.78;6732082;29;20224;-80
2024/01/11 07:54:40;;;;;;;54.37;26.73;;;;;;;-1.91;53.91;99945.19;6731716;29;20238;-79
2024/01/11 07:58:01;;;;;;;54.37;28.30;;;;;;;-2.51;57.22;99943.81;6729372;29;20232;-80
2024/01/11 08:01:24;;;;;;;52.97;29.73;;;;;;;-2.36;57.38;99967.47;6731858;29;20632;-79
2024/01/11 08:04:46;;;;;;;51.33;27.73;;;;;;;-1.15;55.17;99941.78;6733211;29;20283;-81
2024/01/11 08:08:07;;;;;;;49.37;26.90;;;;;;;-0.78;52.14;99947.09;6735743;29;20380;-81
2024/01/11 08:11:29;;;;;;;46.20;25.17;;;;;;;-0.68;52.16;99957.88;6734614;29;20287;-81
2024/01/11 08:14:50;;;;;;;58.37;27.00;;;;;;;-1.08;51.45;99966.91;6735631;29;20335;-81
2024/01/11 08:18:13;;;;;;;53.17;25.27;;;;;;;-1.10;53.16;99968.78;6735570;29;20224;-81
2024/01/11 08:21:35;;;;;;;50.53;25.77;;;;;;;-0.58;52.18;99972.19;6736307;29;20359;-81
2024/01/11 08:24:56;;;;;;;45.43;27.63;;;;;;;-1.10;52.66;99987.31;6740143;29;20279;-80
2024/01/11 08:28:18;;;;;;;55.53;27.73;;;;;;;-1.25;53.86;99973.31;6740496;29;20230;-82
2024/01/11 08:31:40;;;;;;;51.03;27.50;;;;;;;-0.75;53.44;99980.44;6748851;29;20217;-82
2024/01/11 08:35:04;;;;;;;48.90;27.40;;;;;;;-0.63;53.10;99980.47;6744135;29;20240;-80
2024/01/11 08:38:25;;;;;;;48.77;26.23;;;;;;;-0.18;52.59;99976.38;6750890;29;20245;-82
2024/01/11 08:41:49;;;;;;;51.40;28.60;;;;;;;0.51;50.84;99978.22;6751791;29;20236;-81
2024/01/11 08:45:17;;;;;;;55.47;28.00;;;;;;;0.62;50.80;99962.38;6737507;29;20700;-82
2024/01/11 08:48:39;;;;;;;51.73;27.43;;;;;;;3.00;46.38;99958.03;6737272;29;20224;-82
2024/01/11 08:52:02;;;;;;;50.07;27.97;;;;;;;3.65;43.62;99957.72;6737341;29;20227;-82
2024/01/11 08:55:26;;;;;;;50.73;28.83;;;;;;;3.80;43.78;99951.03;6736861;29;20233;-81
2024/01/11 08:58:48;;;;;;;46.50;28.13;;;;;;;3.05;43.90;99965.63;6734798;29;20342;-81
2024/01/11 09:02:10;;;;;;;48.87;27.50;;;;;;;2.46;45.80;99925.38;6734802;29;20224;-82
2024/01/11 09:05:32;;;;;;;51.53;28.07;;;;;;;2.32;46.62;99965.59;6735305;29;20208;-81
2024/01/11 09:08:54;;;;;;;53.30;30.50;;;;;;;1.49;49.34;99973.28;6735714;29;20690;-82
2024/01/11 09:12:16;;;;;;;52.10;29.43;;;;;;;1.65;49.59;99963.16;6735015;29;20291;-82
2024/01/11 09:15:38;;;;;;;55.57;30.70;;;;;;;1.53;49.92;99975.59;6733822;29;20319;-81
2024/01/11 09:19:00;;;;;;;52.87;29.63;;;;;;;0.73;51.33;99975.66;6741547;29;20240;-82
2024/01/11 09:22:22;;;;;;;49.43;29.50;;;;;;;1.30;50.88;99981.84;6734609;29;20628;-83
2024/01/11 09:25:45;;;;;;;50.60;29.23;;;;;;;1.26;51.58;99987.50;6734437;29;20368;-82
2024/01/11 09:29:06;;;;;;;52.33;29.60;;;;;;;0.86;52.36;99999.47;6736820;29;20299;-83
2024/01/11 09:32:28;;;;;;;50.10;30.97;;;;;;;0.99;52.78;99985.16;6747196;29;20269;-81
2024/01/11 09:35:49;;;;;;;55.70;29.03;;;;;;;1.49;51.13;99982.09;6736369;29;20736;-81
2024/01/11 09:39:13;;;;;;;53.13;29.53;;;;;;;1.45;51.78;99971.84;6716062;29;20319;-82
2024/01/11 09:42:36;;;;;;;48.47;30.73;;;;;;;1.38;51.71;99970.63;6711604;29;20229;-82
2024/01/11 09:45:58;;;;;;;54.80;31.40;;;;;;;2.05;50.80;99967.81;6710598;29;20698;-82
2024/01/11 09:49:20;;;;;;;56.77;31.23;;;;;;;2.48;49.41;99959.84;6711789;29;20279;-82
2024/01/11 09:52:42;;;;;;;48.67;29.40;;;;;;;2.46;50.33;99988.41;6724858;29;20251;-82
2024/01/11 09:56:06;;;;;;;53.43;30.93;;;;;;;2.81;50.19;99957.03;6733400;29;20326;-82
2024/01/11 09:59:29;;;;;;;50.53;30.33;;;;;;;2.68;49.55;99983.84;6734806;29;20280;-82
2024/01/11 10:02:51;;;;;;;52.10;29.47;;;;;;;2.54;49.49;99973.50;6733384;29;20268;-82
2024/01/11 10:06:16;;;;;;;50.97;30.27;;;;;;;2.53;50.85;99963.81;6729933;29;20212;-82
2024/01/11 10:09:38;;;;;;;47.80;28.33;;;;;;;2.10;49.25;99919.56;6727370;29;20333;-82
2024/01/11 10:12:59;;;;;;;48.77;30.30;;;;;;;2.27;50.83;99948.28;6733079;29;20816;-82
2024/01/11 10:16:24;;;;;;;49.37;28.93;;;;;;;2.54;50.25;99919.44;6736498;29;20240;-81
2024/01/11 10:19:46;;;;;;;52.33;29.33;;;;;;;3.09;49.10;99941.28;6735870;29;20216;-81
2024/01/11 10:23:08;;;;;;;51.17;29.63;;;;;;;3.56;48.46;99926.50;6735385;29;20285;-81
2024/01/11 10:26:32;;;;;;;52.63;28.90;;;;;;;3.94;49.15;99924.81;6731847;29;20247;-82
2024/01/11 10:29:53;;;;;;;45.43;28.67;;;;;;;3.84;47.97;99923.94;6732136;29;20252;-81
2024/01/11 10:33:16;;;;;;;45.00;27.67;;;;;;;3.11;48.37;99915.34;6741508;29;20613;-81
2024/01/11 10:36:38;;;;;;;47.53;28.03;;;;;;;3.21;48.69;99918.06;6736175;29;20236;-81
2024/01/11 10:40:03;;;;;;;42.97;28.67;;;;;;;3.12;49.31;99941.00;6736836;29;20244;-81
2024/01/11 10:43:25;;;;;;;46.80;28.30;;;;;;;2.78;49.45;99944.00;6735455;29;20275;-81
2024/01/11 10:46:47;;;;;;;48.97;28.07;;;;;;;3.17;48.36;99940.59;6733975;29;20331;-82
2024/01/11 10:50:11;;;;;;;47.40;29.50;;;;;;;3.27;49.56;99942.38;6734488;29;20699;-81
2024/01/11 10:53:37;;;;;;;48.27;30.63;;;;;;;3.61;48.55;99950.94;6732926;29;20349;-82
2024/01/11 10:57:00;;;;;;;48.03;30.80;;;;;;;3.83;47.96;99918.75;6732082;29;20251;-82
2024/01/11 11:00:22;;;;;;;51.00;29.97;;;;;;;4.91;45.61;99935.44;6732821;29;20222;-82
2024/01/11 11:03:45;;;;;;;51.73;29.97;;;;;;;4.43;45.69;99906.06;6733421;29;20595;-82
2024/01/11 11:11:03;;;;;;;50.80;30.10;;;;;;;5.07;45.69;99919.69;6731326;29;20307;-82
2024/01/11 11:14:25;;;;;;;45.57;28.90;;;;;;;5.12;44.33;99912.91;6733056;29;20219;-82
2024/01/11 11:17:47;;;;;;;49.60;31.23;;;;;;;4.62;46.33;99930.13;6738285;29;20336;-82
2024/01/11 11:21:11;;;;;;;51.40;29.90;;;;;;;4.60;45.93;99918.72;6738572;29;20789;-82
2024/01/11 11:24:36;;;;;;;47.33;29.90;;;;;;;5.14;45.62;99916.28;6735655;29;20214;-82
2024/01/11 11:27:58;;;;;;;48.80;28.90;;;;;;;5.75;43.79;99912.16;6733206;29;20771;-82
2024/01/11 11:31:35;;;;;;;48.10;28.90;;;;;;;5.14;45.06;99931.50;6735029;29;20271;-82
2024/01/11 11:34:56;;;;;;;51.47;30.07;;;;;;;5.16;45.13;99930.34;6726989;29;20317;-81
2024/01/11 11:38:19;;;;;;;51.70;29.60;;;;;;;4.45;45.45;99889.91;6732466;29;20244;-82
2024/01/11 11:41:42;;;;;;;48.20;28.63;;;;;;;4.93;45.85;99917.44;6737039;29;20336;-81
2024/01/11 11:45:05;;;;;;;50.73;29.47;;;;;;;5.25;44.70;99894.72;6735774;29;20630;-81
2024/01/11 11:48:49;;;;;;;43.67;28.70;;;;;;;5.74;44.25;99899.75;6733933;29;20754;-81
2024/01/11 11:52:15;;;;;;;43.80;28.97;;;;;;;5.49;45.16;99896.91;6730834;29;20360;-81
2024/01/11 11:55:37;;;;;;;47.00;29.07;;;;;;;5.28;45.27;99891.78;6732891;29;20254;-82
2024/01/11 11:59:02;;;;;;;46.73;28.80;;;;;;;4.96;44.93;99877.09;6735765;29;20384;-81
2024/01/11 12:02:26;;;;;;;45.90;28.60;;;;;;;5.28;45.11;99877.53;6744835;29;20221;-82
2024/01/11 12:05:47;;;;;;;45.97;29.80;;;;;;;6.19;43.29;99875.72;6741122;29;20339;-83
2024/01/11 12:09:09;;;;;;;46.10;29.27;;;;;;;5.51;44.40;99861.00;6741191;29;20268;-82
2024/01/11 12:12:31;;;;;;;45.80;30.20;;;;;;;5.81;44.84;99883.97;6740285;29;20226;-81
2024/01/11 12:15:55;;;;;;;49.20;31.47;;;;;;;5.98;43.97;99865.28;6737955;29;20311;-82
2024/01/11 12:19:18;;;;;;;47.53;30.07;;;;;;;5.92;44.02;99862.34;6738206;29;20229;-82
2024/01/11 12:22:39;;;;;;;48.57;28.03;;;;;;;5.76;44.28;99856.78;6738951;29;20247;-82
2024/01/11 12:26:02;;;;;;;49.07;29.33;;;;;;;5.72;44.49;99863.44;6737794;29;20277;-81
2024/01/11 12:29:24;;;;;;;44.57;28.87;;;;;;;5.26;44.57;99837.59;6738710;29;20216;-82
2024/01/11 12:32:47;;;;;;;45.00;29.47;;;;;;;5.51;44.30;99858.34;6738189;29;20245;-81
2024/01/11 12:36:10;;;;;;;45.30;28.70;;;;;;;5.85;44.79;99867.47;6738522;29;20304;-83
2024/01/11 12:39:31;;;;;;;48.13;30.77;;;;;;;6.37;43.34;99839.91;6738449;29;20212;-82
2024/01/11 12:42:55;;;;;;;49.27;29.03;;;;;;;5.59;44.04;99852.22;6738924;29;20215;-81
2024/01/11 12:46:17;;;;;;;47.00;29.10;;;;;;;5.72;43.95;99832.16;6738161;29;20219;-82
2024/01/11 12:49:45;;;;;;;47.30;29.97;;;;;;;5.86;44.67;99844.22;6737899;29;20581;-82
2024/01/11 12:53:17;;;;;;;51.27;30.80;;;;;;;6.54;42.76;99846.25;6737050;29;20214;-82
2024/01/11 12:56:42;;;;;;;43.83;28.27;;;;;;;6.34;43.74;99831.34;6713122;29;20560;-82
2024/01/11 13:00:13;;;;;;;48.40;30.33;;;;;;;6.34;44.21;99832.19;6713887;29;20226;-83
2024/01/11 13:03:35;;;;;;;47.97;29.57;;;;;;;7.00;41.92;99811.94;6713080;29;20213;-81
2024/01/11 13:06:58;;;;;;;47.50;29.97;;;;;;;6.66;42.35;99828.94;6728998;29;20237;-82
2024/01/11 13:10:19;;;;;;;47.87;29.27;;;;;;;7.12;42.47;99812.50;6737754;29;20573;-81
2024/01/11 13:13:41;;;;;;;46.70;29.90;;;;;;;6.80;42.56;99825.69;6738591;29;20320;-82
2024/01/11 13:17:02;;;;;;;41.03;28.33;;;;;;;6.56;43.06;99826.38;6739142;29;20297;-82
2024/01/11 13:20:24;;;;;;;48.27;30.87;;;;;;;6.48;43.60;99823.59;6739189;29;20350;-82
2024/01/11 13:23:47;;;;;;;47.07;30.20;;;;;;;7.00;42.48;99825.34;6739118;29;20220;-82
2024/01/11 13:27:09;;;;;;;49.37;29.67;;;;;;;6.81;42.17;99784.50;6739652;29;20315;-81
2024/01/11 13:30:31;;;;;;;46.80;28.83;;;;;;;6.64;42.12;99834.44;6748604;29;20242;-82
2024/01/11 13:33:52;;;;;;;44.87;28.67;;;;;;;6.75;43.00;99839.56;6751289;29;20217;-81
2024/01/11 13:37:14;;;;;;;50.23;30.80;;;;;;;7.11;42.74;99840.31;6738831;29;20610;-82
2024/01/11 13:40:38;;;;;;;45.87;29.00;;;;;;;7.19;41.39;99843.88;6744489;29;20212;-81
2024/01/11 13:43:59;;;;;;;43.50;28.60;;;;;;;7.33;41.73;99848.69;6741181;29;20222;-81
2024/01/11 13:47:21;;;;;;;43.87;27.50;;;;;;;6.98;42.50;99846.13;6738456;29;20240;-82
2024/01/11 13:50:43;;;;;;;44.33;28.87;;;;;;;6.87;43.25;99843.69;6738644;29;20217;-82
2024/01/11 13:54:04;;;;;;;49.23;30.30;;;;;;;7.20;42.15;99824.09;6738956;29;20241;-81
2024/01/11 13:57:28;;;;;;;46.77;28.13;;;;;;;7.55;41.17;99845.41;6739424;29;20679;-81
2024/01/11 14:00:49;;;;;;;46.03;28.80;;;;;;;7.54;41.54;99837.56;6740147;29;20223;-82
2024/01/11 14:04:11;;;;;;;45.00;29.00;;;;;;;7.00;41.74;99840.56;6737358;29;20281;-81
2024/01/11 14:07:32;;;;;;;49.17;29.53;;;;;;;6.51;43.42;99851.91;6735752;29;20737;-82
2024/01/11 14:10:54;;;;;;;44.57;28.13;;;;;;;6.80;43.13;99860.53;6737003;29;20722;-81
2024/01/11 14:14:18;;;;;;;48.30;30.33;;;;;;;6.79;43.29;99866.91;6741405;29;20213;-81
2024/01/11 14:17:40;;;;;;;41.90;30.00;;;;;;;6.69;43.72;99896.47;6737885;29;20245;-81
2024/01/11 14:21:11;;;;;;;45.50;28.40;;;;;;;6.37;43.84;99874.72;6736276;29;20301;-82
2024/01/11 14:24:33;;;;;;;43.83;29.87;;;;;;;6.26;44.26;99882.97;6737356;29;20671;-81
2024/01/11 14:27:56;;;;;;;43.93;28.70;;;;;;;6.28;44.19;99889.03;6735343;29;20324;-81
2024/01/11 14:31:19;;;;;;;47.83;29.17;;;;;;;6.04;44.87;99886.09;6735714;29;20232;-82
2024/01/11 14:34:40;;;;;;;44.97;27.97;;;;;;;5.89;45.18;99881.41;6734084;29;20305;-81
2024/01/11 14:38:04;;;;;;;45.00;28.97;;;;;;;5.66;45.84;99885.44;6731227;29;20242;-82
2024/01/11 14:41:26;;;;;;;40.70;28.33;;;;;;;5.42;45.45;99869.06;6732230;29;20248;-82
2024/01/11 14:44:48;;;;;;;46.00;29.90;;;;;;;5.62;45.91;99887.56;6716503;29;20236;-81
2024/01/11 14:48:12;;;;;;;42.73;28.90;;;;;;;5.57;45.58;99880.97;6731182;29;20225;-82
2024/01/11 14:51:33;;;;;;;44.80;28.03;;;;;;;5.36;46.16;99875.00;6717576;29;20221;-81
2024/01/11 14:54:55;;;;;;;40.90;28.53;;;;;;;5.42;46.13;99869.91;6707283;29;20214;-81
2024/01/11 14:58:17;;;;;;;45.17;29.60;;;;;;;5.29;45.98;99861.38;6707529;29;20374;-81
2024/01/11 15:01:39;;;;;;;43.07;28.60;;;;;;;5.45;46.19;99904.38;6723829;29;20214;-82
2024/01/11 15:05:01;;;;;;;52.50;30.53;;;;;;;5.52;45.77;99910.81;6734272;29;20210;-81
2024/01/11 15:08:23;;;;;;;46.63;28.67;;;;;;;5.37;45.74;99868.66;6733783;29;20230;-81
2024/01/11 15:11:46;;;;;;;40.70;28.27;;;;;;;5.63;45.85;99899.09;6732588;29;20283;-82
2024/01/11 15:15:09;;;;;;;45.93;28.73;;;;;;;5.40;46.53;99908.47;6734084;29;20239;-82
2024/01/11 15:18:31;;;;;;;49.30;29.90;;;;;;;5.67;45.70;99909.34;6732399;29;20614;-81
2024/01/11 15:21:54;;;;;;;45.93;28.13;;;;;;;5.38;45.80;99903.28;6737707;29;20712;-82
2024/01/11 15:25:16;;;;;;;49.43;30.00;;;;;;;5.68;45.33;99916.41;6734555;29;20291;-81
2024/01/11 15:28:38;;;;;;;46.43;28.17;;;;;;;5.56;45.19;99909.56;6732962;29;20228;-80
2024/01/11 15:31:59;;;;;;;49.50;29.13;;;;;;;5.61;45.44;99931.34;6732803;29;20258;-80
2024/01/11 15:35:21;;;;;;;44.33;29.23;;;;;;;5.66;45.41;99926.38;6739955;29;20222;-80
2024/01/11 15:38:44;;;;;;;46.73;29.00;;;;;;;5.73;45.43;99934.69;6739454;29;20295;-80
2024/01/11 15:42:06;;;;;;;45.57;28.80;;;;;;;5.92;44.86;99930.13;6740212;29;20256;-79